Terminal Aerodrome Forecast
Issued by NWS

Home | Current Version | Previous Version | Text Only | Print | Product List | Glossary On
Versions: 1 2 3 4 5 6 7 8 9 10 11 12 13 14
000
FTUS46 KPDT 011720
TAFRDM
TAF
KRDM 011720Z 0118/0218 32005KT P6SM FEW150 BKN250
     FM012000 34011KT P6SM SCT150 BKN250
     FM020400 32008G15KT P6SM SCT120 BKN200
     FM020900 16004KT P6SM SCT150
     FM021600 VRB03KT P6SM SCT150 BKN250=

USA.gov is the U.S. government's official web portal to all federal, state and local government web resources and services.